YCEM weather

Coldstream Airport
Coldstream, Victoria, Australia

Public forecast

Using degrees Celsius for public forecast. Weather courtesy of forecast.io.

Closest aviation weather report (METAR) to Coldstream Airport

Closest report is Melbourne Essendon Airport, 24.0 nm (44.5 km) W. Retrieved 2020/07/13 13:00 UTC (8 minutes ago):

YMEN 131300Z AUTO 15005KT 9999 // SCT023 SCT033 SCT040 08/07 Q1027

Closest aviation forecast (TAF) to Coldstream Airport

Closest forecast is Melbourne International Airport, 27.1 nm (50.1 km) W. Retrieved 2020/07/13 12:00 UTC (1 hour ago):

TAF YMML 131116Z 1312/1418 17008KT 9999 SCT010 SCT020 BECMG 1313/1314 18008KT 9999 BKN006 FM140000 16012KT 9999 FEW015 SCT025 FM140300 15012KT 9999 SCT025 BKN040 BECMG 1412/1414 16005KT 9999 BKN006 PROB30 1312/1314 2000 BR BKN002 PROB30 1314/1323 0500 FG BKN001 PROB30 1412/1418 2000 BR BKN002